Raton, NM

6:18 PM MDT on July 24, 2014 (GMT -0600)
Stokes (KTAD) Elev 5761 ft | 37.26 °N, 104.33 °W | Change Station

Current weather conditions updated 24 minutes ago

Clear
Clear
93 °F
Feels Like 93 °F
N
28
Wind Variable Wind from South
Gusts 33 mph

Tomorrow is forecast to be Much Cooler than today.

Today
High -- | Low -- °F
--% Chance of Precip.
Yesterday
High -- | Low -- °F
Precip. -- in
5:57 AM 8:12 PM
Waning Crescent, 3% visible
Pressure 29.73 in
Visibility 10.0 miles
Clouds Clear
Dew Point 39 °F
Humidity 15%
Rainfall 0.00 in
Snow Depth Not available.
UV 2 out of 12
Pollen 7.40 out of 12
Air Quality Not available.
Flu Activity Not available.
METAR KTAD 242354Z AUTO 18024G29KT 10SM CLR 34/04 A3003 RMK AO2 PK WND 20030/2300 SLP066 T03390039 10367 20322 56025

More Conditions Fewer Conditions

Pressure 29.73 in
Visibility 10.0 miles
Clouds Clear
Dew Point 39 °F
Humidity 15%
Rainfall 0.00 in
Snow Depth Not available.
UV 2 out of 12
Pollen 7.40 out of 12
Air Quality Not available.
Flu Activity Not available.
METAR KTAD 242354Z AUTO 18024G29KT 10SM CLR 34/04 A3003 RMK AO2 PK WND 20030/2300 SLP066 T03390039 10367 20322 56025

More Conditions Fewer Conditions

10-Day Weather Forecast

Almanac

Astronomy

Jul. 24, 2014 Rise Set
Actual Time 5:57 AM MDT 8:12 PM MDT
Civil Twilight 5:28 AM MDT 8:41 PM MDT
Nautical Twilight 4:52 AM MDT 9:17 PM MDT
Astronomical Twilight 4:13 AM MDT 9:55 PM MDT
Moon 4:07 AM MDT (7/24) 6:29 PM MDT (7/24)
Length of Visible Light 15h 12m
Length of Day
14h 14m
Tomorrow will be 1m 33s shorter.
Waning Crescent, 3% of the Moon is Illuminated
Today
Waning Crescent
Jul 26
New
Aug 3
First Quarter
Aug 10
Full
Aug 17
Last Quarter

Today's Extremes

State Highs State Lows

Community

WunderPhotos

Upload Photos

1,737,169 photos uploaded!

Nearby

Snow Depth

Station Depth Elevation
North Costilla 0 in 10600 ft
Red River Pass #2 0 in 9850 ft
Santa Fe 0 in 11445 ft
Sierra Blanca 0 in 10280 ft
Silver Creek Divide 0 in 9000 ft

Earthquake Activity

City Distance Mag. Time & Date
No recent earthquake activity has been reported nearby.
Minimum magnitude displayed is 2.5.

Coastal Water Temperatures

Place Temperature
No Stations Reporting

Nearby Weather Stations

Station Location Temp. Heat Index Dew Point Humidity Wind Precip. Elev Updated Type
Near Historic Downtown, Raton, NM 87.4 °F 85 °F 51 °F 29% South  at  1.0 mph - / hr 6709 ft 6:08 PM MDT Normal
RAWS BOSQUE CO, Weston, CO 89 °F 85 °F 41 °F 19% WNW  at  3 mph 0.00 in / hr 8173 ft 5:26 PM MDT MADIS
Elm St, Cokedale, CO 92.5 °F 89 °F 44 °F 19% WNW  at  2.2 mph 0.00 in / hr 6332 ft 6:14 PM MDT Normal
Near Trinidad State Junior College, Trinidad, CO 93.9 °F 90 °F 48 °F 21% South  at  5.0 mph 0.00 in / hr 6070 ft 6:18 PM MDT Rapid Fire
HADS PURGATOIRE RIVER AT TRINIDAD CO, Trinidad, CO 89 °F 86 °F - - North  at  - 0.00 in / hr 5979 ft 5:15 PM MDT MADIS

Show More Stations Show Fewer Stations